South Dennis, MA (02660)

6:36 AM EDT on April 21, 2015 (GMT -0400)
Hazelwood Road | | Change Station
CLOSE
Current Station
Personal Weather Station
Location: South Dennis, MA
Elevation: 41 ft
Nearby Weather Stations

Elev 41 ft 41.71 °N, 70.18 °W | Updated 5 minutes ago

Fog
Fog
54.4 °F
Feels Like 54.4 °F
N
3.0
Wind Variable Wind from South
Gusts 10.0 mph

Today
High -- | Low -- °F
--% Chance of Precip.
Yesterday
High -- | Low -- °F
Precip. -- in
5:51 AM 7:27 PM
Waxing Crescent, 9% visible
Pressure 29.59 in
Visibility 0.5 miles
Clouds
Dew Point 54 °F
Humidity 99%
Rainfall 0.00 in
Snow Depth Not available.
UV 0.0 out of 12
Pollen 2.80 out of 12
Air Quality Not available.
Flu Activity Widespread
METAR KHYA 210956Z 17005KT 1/2SM FG VV002 12/12 A2959 RMK AO2 LTG DSNT S RAB23E35 SLP020 P0001 T01170117

More Conditions Fewer Conditions

Pressure 29.59 in
Visibility 0.5 miles
Clouds
Dew Point 54 °F
Humidity 99%
Rainfall 0.00 in
Snow Depth Not available.
UV 0.0 out of 12
Pollen 2.80 out of 12
Air Quality Not available.
Flu Activity Widespread
METAR KHYA 210956Z 17005KT 1/2SM FG VV002 12/12 A2959 RMK AO2 LTG DSNT S RAB23E35 SLP020 P0001 T01170117

More Conditions Fewer Conditions

10-Day Weather Forecast

Almanac

Astronomy

Apr. 21, 2015 Rise Set
Actual Time
Civil Twilight
Nautical Twilight
Astronomical Twilight
Moon
Length of Visible Light
Length of Day
Tomorrow will be .
, % of the Moon is Illuminated

Today's Extremes

State Highs State Lows

Community

WunderPhotos

Upload Photos

1,815,340 photos uploaded!

WunderBlogs® & News

Nearby

Air Quality

  Air Quality AQ Index Pollutant
Not available.

Snow Depth

Station Depth Elevation

Earthquake Activity

City Distance Mag. Time & Date
Minimum magnitude displayed is 2.5.

Coastal Water Temperatures

Place Temperature

Stations

Nearby Weather Stations

Station Location Temp. Windchill Dew Point Humidity Wind Precip. Elev Updated Type